Pagrindinis puslapis
METAR-TAF:

METAR-TAF

Oro uostai :

Clark's Point, Aliaska, Jungtinės Amerikos Valstijos

platuma: 58-50-01N, ilguma: 158-31-46W, Aukštis: 24 m

Dabartinis oras

Ataskaita buvo paskelbta 13 minutes, ne 08:56 UTC
Vėjas 10 kt iš Vakarų/Šiaurės Vakarų
Temperatūra 11°C
Drėgmė 94%
Slėgis 1003 hPa
Matomumas: 16.1 km
Giedras dangus

METAR: PFCL 160856Z AUTO 29010KT 10SM CLR 11/10 A2961 RMK AO2 SLP020 T01060100 401280094 53019 TSNO

Laikas: 01:09 (09:09 UTC)


TAF: trūkstamas

Orai ataskaitas ir orų prognozės (METAR, TAF).

turimą stotys yra geltonos ir raudonos taškus žemėlapyje.

Perkelti pele per norėdami pamatyti stoties vardą.

Tada spustelėkite, norėdami matyti oro stebėjimo ir prognozės.

Norėdami pakeisti žemėlapį: spustelėkite ant žalios mygtukų su juodo kryžiaus žemyn,; žalią mygtuką su brūkšneliu, jei norite nutolinti; arba žalių rodyklių gretimoms žemėlapius.


METAR-TAF: